Time;durP1;ratioP1;P1;durP2;ratioP2;P2;SDS_P1;SDS_P2;PMS_P1;PMS_P2;Temp;Humidity;BMP_temperature;BMP_pressure;BME280_temperature;BME280_humidity;BME280_pressure;Samples;Min_cycle;Max_cycle;Signal;HPM_P1;HPM_P2
2021/07/13 00:01:04;;;;;;;16.90;13.10;;;19.60;99.90;;;;;;5046279;28;20297;-84
2021/07/13 00:03:30;;;;;;;20.80;15.70;;;19.50;99.90;;;;;;5056798;28;20182;-84
2021/07/13 00:05:56;;;;;;;17.35;15.68;;;19.50;99.90;;;;;;5067922;28;20193;-84
2021/07/13 00:08:22;;;;;;;15.50;14.23;;;19.50;99.90;;;;;;5064542;28;20182;-83
2021/07/13 00:10:48;;;;;;;18.75;14.77;;;19.50;99.90;;;;;;5084101;28;20178;-84
2021/07/13 00:13:14;;;;;;;19.98;15.82;;;19.40;99.90;;;;;;5075777;28;20516;-84
2021/07/13 00:15:41;;;;;;;14.80;13.45;;;19.40;99.90;;;;;;5074556;28;20185;-84
2021/07/13 00:18:08;;;;;;;15.40;13.20;;;19.50;99.90;;;;;;5092950;28;20200;-84
2021/07/13 00:20:34;;;;;;;14.77;12.98;;;19.40;99.90;;;;;;5075814;28;20220;-83
2021/07/13 00:23:00;;;;;;;15.00;13.63;;;19.40;99.90;;;;;;5061097;28;20235;-84
2021/07/13 00:25:27;;;;;;;16.05;14.50;;;19.30;99.90;;;;;;5072812;28;20560;-86
2021/07/13 00:27:53;;;;;;;17.77;14.93;;;19.20;99.90;;;;;;5072364;28;20236;-83
2021/07/13 00:30:19;;;;;;;16.23;14.65;;;19.20;99.90;;;;;;5058470;28;20174;-83
2021/07/13 00:32:46;;;;;;;15.93;14.55;;;19.10;99.90;;;;;;5073534;28;20509;-83
2021/07/13 00:35:12;;;;;;;15.18;13.88;;;19.00;99.90;;;;;;5046788;28;20540;-82
2021/07/13 00:37:38;;;;;;;18.15;16.42;;;19.00;99.90;;;;;;5058022;28;20253;-83
2021/07/13 00:40:06;;;;;;;24.08;17.80;;;19.10;99.90;;;;;;5075606;28;20281;-83
2021/07/13 00:42:32;;;;;;;23.95;18.48;;;19.20;99.90;;;;;;5072733;28;20575;-84
2021/07/13 00:44:57;;;;;;;18.42;16.42;;;19.20;99.90;;;;;;5055437;28;20175;-83
2021/07/13 00:47:26;;;;;;;15.30;13.88;;;19.30;99.90;;;;;;5073465;28;20210;-83
2021/07/13 00:49:52;;;;;;;14.55;13.05;;;19.20;99.90;;;;;;5055434;28;20175;-84
2021/07/13 00:52:19;;;;;;;18.08;16.08;;;19.10;99.90;;;;;;5062180;28;20189;-83
2021/07/13 00:54:47;;;;;;;21.42;17.02;;;19.20;99.90;;;;;;5075272;28;20178;-83
2021/07/13 00:57:15;;;;;;;24.58;18.20;;;19.10;99.90;;;;;;5066707;28;20270;-85
2021/07/13 00:59:41;;;;;;;19.38;17.33;;;19.20;99.90;;;;;;5057506;28;20166;-84
2021/07/13 01:02:09;;;;;;;18.95;16.88;;;19.20;99.90;;;;;;5043323;28;20194;-84
2021/07/13 01:04:38;;;;;;;28.77;19.70;;;19.20;99.90;;;;;;5069542;28;20294;-83
2021/07/13 01:07:06;;;;;;;25.58;19.63;;;19.20;99.90;;;;;;5051169;28;20262;-84
2021/07/13 01:09:57;;;;;;;21.52;16.45;;;19.20;99.90;;;;;;5058740;28;20175;-84
2021/07/13 01:13:00;;;;;;;17.77;16.05;;;19.00;99.90;;;;;;5088975;28;20311;-83
2021/07/13 01:15:29;;;;;;;20.42;16.58;;;18.70;99.90;;;;;;5076442;28;20186;-86
2021/07/13 01:18:03;;;;;;;19.60;17.55;;;18.70;99.90;;;;;;5080650;28;20178;-83
2021/07/13 01:20:47;;;;;;;22.67;19.73;;;18.70;99.90;;;;;;5075962;28;20173;-83
2021/07/13 01:23:45;;;;;;;18.38;16.50;;;18.70;99.90;;;;;;5077221;28;20551;-83
2021/07/13 01:26:42;;;;;;;20.60;15.13;;;18.70;99.90;;;;;;5062579;28;20190;-83
2021/07/13 01:29:14;;;;;;;17.13;13.55;;;18.70;99.90;;;;;;5051132;28;20268;-83
2021/07/13 01:31:42;;;;;;;16.60;12.40;;;18.70;99.90;;;;;;5097034;28;20166;-84
2021/07/13 01:34:21;;;;;;;18.75;13.77;;;18.60;99.90;;;;;;5094776;28;20192;-83
2021/07/13 01:36:52;;;;;;;16.25;12.27;;;18.70;99.90;;;;;;5094415;28;20648;-83
2021/07/13 01:39:19;;;;;;;17.00;14.85;;;18.70;99.90;;;;;;5096712;28;20237;-83
2021/07/13 01:41:51;;;;;;;22.75;15.88;;;18.70;99.90;;;;;;5060056;28;20652;-83
2021/07/13 01:44:19;;;;;;;16.42;14.68;;;18.70;99.90;;;;;;5058314;28;20178;-83
2021/07/13 01:46:48;;;;;;;15.65;14.13;;;18.60;99.90;;;;;;5076189;28;20254;-83
2021/07/13 01:49:19;;;;;;;31.40;19.25;;;18.50;99.90;;;;;;5062248;28;20615;-84
2021/07/13 01:51:47;;;;;;;20.10;15.80;;;18.50;99.90;;;;;;5059249;28;20595;-84
2021/07/13 01:54:14;;;;;;;15.35;13.95;;;18.50;99.90;;;;;;5058506;28;20257;-83
2021/07/13 01:56:41;;;;;;;16.20;14.48;;;18.50;99.90;;;;;;5057784;28;20183;-84
2021/07/13 01:59:11;;;;;;;15.23;13.75;;;18.50;99.90;;;;;;5074430;28;20186;-83
2021/07/13 02:01:37;;;;;;;15.77;13.20;;;18.50;99.90;;;;;;5046289;28;20199;-83
2021/07/13 02:04:03;;;;;;;14.90;13.70;;;18.50;99.90;;;;;;5083134;28;20186;-83
2021/07/13 02:06:30;;;;;;;15.45;14.02;;;18.50;99.90;;;;;;5058323;28;20639;-83
2021/07/13 02:08:59;;;;;;;17.77;13.00;;;18.40;99.90;;;;;;5062960;28;20185;-83
2021/07/13 02:11:27;;;;;;;16.25;14.45;;;18.40;99.90;;;;;;5076048;28;20205;-84
2021/07/13 02:13:53;;;;;;;21.13;16.77;;;18.40;99.90;;;;;;5069739;28;20269;-84
2021/07/13 02:16:20;;;;;;;19.45;14.20;;;18.40;99.90;;;;;;5080477;28;20541;-83
2021/07/13 02:18:47;;;;;;;15.00;11.98;;;18.40;99.90;;;;;;5057691;28;20261;-83
2021/07/13 02:21:14;;;;;;;11.98;10.77;;;18.40;99.90;;;;;;5058036;28;20202;-83
2021/07/13 02:23:41;;;;;;;13.77;12.68;;;18.40;99.90;;;;;;5057662;28;20278;-85
2021/07/13 02:26:10;;;;;;;14.15;12.85;;;18.30;99.90;;;;;;5058205;28;20258;-83
2021/07/13 02:28:38;;;;;;;14.48;13.00;;;18.40;99.90;;;;;;5092618;28;20271;-83
2021/07/13 02:31:13;;;;;;;21.70;16.25;;;18.30;99.90;;;;;;5095652;28;20177;-85
2021/07/13 02:33:57;;;;;;;15.68;14.18;;;18.20;99.90;;;;;;5062171;28;20284;-83
2021/07/13 02:36:29;;;;;;;16.67;14.05;;;18.10;99.90;;;;;;5075393;28;20155;-83
2021/07/13 02:38:57;;;;;;;17.13;15.43;;;18.10;99.90;;;;;;5075612;28;20593;-83
2021/07/13 02:41:24;;;;;;;19.90;14.73;;;18.10;99.90;;;;;;5074939;28;20714;-83
2021/07/13 02:43:52;;;;;;;18.65;14.45;;;18.20;99.90;;;;;;5075158;28;20181;-84
2021/07/13 02:46:19;;;;;;;39.97;25.40;;;18.30;99.90;;;;;;5057281;28;20556;-84
2021/07/13 02:48:45;;;;;;;36.08;24.65;;;18.30;99.90;;;;;;5094622;28;20174;-84
2021/07/13 02:51:12;;;;;;;36.15;25.88;;;18.30;99.90;;;;;;5076825;28;20174;-83
2021/07/13 02:53:39;;;;;;;59.72;36.15;;;18.30;99.90;;;;;;5058043;28;20178;-83
2021/07/13 02:56:06;;;;;;;60.35;37.53;;;18.30;99.90;;;;;;5056761;28;20659;-83
2021/07/13 02:58:33;;;;;;;66.03;38.15;;;18.40;99.90;;;;;;5057278;28;20538;-83
2021/07/13 03:00:59;;;;;;;77.00;44.03;;;18.40;99.90;;;;;;5043179;28;20193;-83
2021/07/13 03:03:25;;;;;;;68.32;42.33;;;18.50;99.90;;;;;;5056102;28;20269;-83
2021/07/13 03:05:52;;;;;;;71.03;42.50;;;18.60;99.90;;;;;;5076426;28;20627;-83
2021/07/13 03:08:20;;;;;;;56.30;36.10;;;18.60;99.90;;;;;;5060292;28;20178;-84
2021/07/13 03:10:47;;;;;;;56.50;36.67;;;18.70;99.90;;;;;;5077203;28;20522;-83
2021/07/13 03:13:13;;;;;;;38.75;27.70;;;18.70;99.90;;;;;;5088467;28;20182;-83
2021/07/13 03:15:41;;;;;;;31.73;24.70;;;18.70;99.90;;;;;;5094547;28;20175;-83
2021/07/13 03:18:08;;;;;;;24.52;17.65;;;18.60;99.90;;;;;;5080018;28;20240;-84
2021/07/13 03:20:35;;;;;;;21.23;17.63;;;18.50;99.90;;;;;;5086582;28;20181;-83
2021/07/13 03:23:01;;;;;;;28.50;20.58;;;18.40;99.90;;;;;;5073357;28;20660;-83
2021/07/13 03:25:37;;;;;;;33.78;20.95;;;18.40;99.90;;;;;;5049942;28;20178;-82
2021/07/13 03:28:04;;;;;;;28.40;22.50;;;18.30;99.90;;;;;;5076859;28;20264;-83
2021/07/13 03:30:30;;;;;;;24.02;21.10;;;18.40;99.90;;;;;;5059398;28;20197;-83
2021/07/13 03:32:58;;;;;;;38.45;26.45;;;18.40;99.90;;;;;;5056938;28;20190;-84
2021/07/13 03:35:26;;;;;;;41.35;29.58;;;18.40;99.90;;;;;;5074433;28;20178;-83
2021/07/13 03:37:52;;;;;;;43.45;26.52;;;18.50;99.90;;;;;;5068449;28;20170;-83
2021/07/13 03:40:20;;;;;;;40.83;27.70;;;18.60;99.90;;;;;;5076602;28;20166;-86
2021/07/13 03:42:47;;;;;;;37.13;27.00;;;18.60;99.90;;;;;;5093191;28;20197;-83
2021/07/13 03:45:16;;;;;;;42.60;26.73;;;18.70;99.90;;;;;;5094293;28;20258;-83
2021/07/13 03:47:53;;;;;;;34.10;27.48;;;18.70;99.90;;;;;;5056011;28;20228;-83
2021/07/13 03:50:20;;;;;;;43.90;30.52;;;18.70;99.90;;;;;;5074364;28;20185;-84
2021/07/13 03:52:46;;;;;;;51.60;32.97;;;18.80;99.90;;;;;;5056159;28;20273;-83
2021/07/13 03:55:12;;;;;;;62.10;38.20;;;18.90;99.90;;;;;;5056123;28;20265;-81
2021/07/13 03:57:39;;;;;;;53.47;33.33;;;19.00;99.90;;;;;;5073336;28;20659;-82
2021/07/13 04:00:12;;;;;;;48.28;28.83;;;19.10;99.90;;;;;;5039623;28;20291;-82
2021/07/13 04:02:38;;;;;;;34.08;23.75;;;19.10;99.90;;;;;;5075594;28;20202;-82
2021/07/13 04:05:05;;;;;;;36.17;20.95;;;19.10;99.90;;;;;;5058261;28;20189;-82
2021/07/13 04:07:31;;;;;;;37.10;24.42;;;19.10;99.90;;;;;;5055412;28;20689;-83
2021/07/13 04:09:57;;;;;;;38.65;24.38;;;19.10;99.90;;;;;;5055753;28;20224;-83
2021/07/13 04:12:22;;;;;;;62.33;35.78;;;19.10;99.90;;;;;;5084171;28;20194;-82
2021/07/13 04:14:48;;;;;;;94.03;49.83;;;19.30;99.90;;;;;;5050612;28;20182;-82
2021/07/13 04:17:13;;;;;;;105.05;53.15;;;19.30;99.90;;;;;;5073884;28;20174;-82
2021/07/13 04:19:39;;;;;;;116.68;58.00;;;19.40;99.90;;;;;;5059305;28;20169;-82
2021/07/13 04:22:04;;;;;;;105.38;53.90;;;19.50;99.90;;;;;;5055190;28;20230;-82
2021/07/13 04:24:30;;;;;;;120.35;56.88;;;19.50;99.90;;;;;;5073847;28;20174;-82
2021/07/13 04:26:57;;;;;;;126.40;57.67;;;19.60;99.90;;;;;;5043225;28;20550;-83
2021/07/13 04:29:22;;;;;;;126.93;59.17;;;19.60;99.90;;;;;;5059170;28;20230;-82
2021/07/13 04:31:48;;;;;;;140.60;58.75;;;19.60;99.90;;;;;;5067454;28;20186;-82
2021/07/13 04:34:14;;;;;;;138.20;61.97;;;19.60;99.90;;;;;;5036710;28;20542;-85
2021/07/13 04:36:41;;;;;;;135.82;61.88;;;19.60;99.90;;;;;;5093173;28;20174;-82
2021/07/13 04:39:08;;;;;;;133.15;58.88;;;19.60;99.90;;;;;;5064093;28;20265;-81
2021/07/13 04:41:35;;;;;;;145.20;61.72;;;19.60;99.90;;;;;;5055987;28;20601;-82
2021/07/13 04:44:02;;;;;;;150.95;61.63;;;19.70;99.90;;;;;;5058808;28;20166;-82
2021/07/13 04:46:31;;;;;;;147.90;61.10;;;19.70;99.90;;;;;;5074358;28;20169;-82
2021/07/13 04:48:57;;;;;;;160.57;66.60;;;19.80;99.90;;;;;;5055562;28;20176;-82
2021/07/13 04:51:26;;;;;;;176.02;65.93;;;19.80;99.90;;;;;;5054923;28;20253;-86
2021/07/13 04:53:52;;;;;;;170.52;67.30;;;19.80;99.90;;;;;;5073560;28;20449;-82
2021/07/13 04:56:18;;;;;;;162.35;65.80;;;19.90;99.90;;;;;;5055231;28;20599;-82
2021/07/13 04:58:43;;;;;;;168.57;67.10;;;20.00;99.90;;;;;;5055025;28;20187;-82
2021/07/13 05:01:10;;;;;;;154.68;62.90;;;20.00;99.90;;;;;;5044353;28;20179;-83
2021/07/13 05:03:36;;;;;;;152.88;65.07;;;20.10;99.90;;;;;;5088686;28;20584;-83
2021/07/13 05:06:02;;;;;;;149.20;62.55;;;20.10;99.90;;;;;;5054794;28;20166;-83
2021/07/13 05:08:28;;;;;;;152.02;64.07;;;20.20;99.90;;;;;;5072464;28;20619;-82
2021/07/13 05:10:54;;;;;;;159.65;66.13;;;20.20;99.90;;;;;;5075408;28;20223;-83
2021/07/13 05:13:20;;;;;;;165.35;67.90;;;20.10;99.90;;;;;;5057327;28;20183;-81
2021/07/13 05:15:46;;;;;;;151.80;64.43;;;20.10;99.90;;;;;;5073513;28;20167;-83
2021/07/13 05:18:13;;;;;;;212.35;67.00;;;20.20;99.90;;;;;;5054841;28;20187;-82
2021/07/13 05:20:45;;;;;;;163.85;68.05;;;20.20;99.90;;;;;;5058436;28;20592;-82
2021/07/13 05:23:11;;;;;;;174.93;67.50;;;20.20;99.90;;;;;;5067327;28;20206;-83
2021/07/13 05:25:38;;;;;;;157.45;64.90;;;20.20;99.90;;;;;;5054170;28;20186;-83
2021/07/13 05:28:05;;;;;;;166.98;67.72;;;20.20;99.90;;;;;;5041108;28;20188;-83
2021/07/13 05:30:31;;;;;;;177.38;70.13;;;20.40;99.90;;;;;;5053539;28;20643;-84
2021/07/13 05:32:57;;;;;;;187.07;71.78;;;20.40;99.90;;;;;;5054818;28;20179;-83
2021/07/13 05:35:23;;;;;;;165.35;66.97;;;20.40;99.90;;;;;;5072780;28;20209;-83
2021/07/13 05:37:49;;;;;;;172.18;68.43;;;20.40;99.90;;;;;;5054974;28;20175;-82
2021/07/13 05:40:15;;;;;;;192.93;76.72;;;20.40;99.90;;;;;;5057599;28;20181;-83
2021/07/13 05:42:41;;;;;;;191.77;76.75;;;20.50;99.90;;;;;;5081366;28;20203;-82
2021/07/13 05:45:08;;;;;;;192.63;78.88;;;20.50;99.90;;;;;;5056011;28;20182;-82
2021/07/13 05:47:34;;;;;;;189.50;77.47;;;20.60;99.90;;;;;;5048195;28;20179;-82
2021/07/13 05:50:00;;;;;;;196.25;79.82;;;20.70;99.90;;;;;;5058341;28;20531;-83
2021/07/13 05:52:29;;;;;;;199.35;79.13;;;20.80;99.90;;;;;;5076198;28;20182;-83
2021/07/13 05:54:58;;;;;;;200.77;79.07;;;20.70;99.90;;;;;;5048466;28;20257;-83
2021/07/13 05:57:23;;;;;;;202.30;78.80;;;20.80;99.90;;;;;;5093215;28;20251;-85
2021/07/13 05:59:49;;;;;;;179.93;77.80;;;20.90;99.90;;;;;;5063426;28;20174;-85
2021/07/13 06:02:15;;;;;;;178.98;76.45;;;21.00;99.90;;;;;;5074567;28;20639;-84
2021/07/13 06:04:40;;;;;;;169.27;74.85;;;21.00;99.90;;;;;;5043448;28;20265;-84
2021/07/13 06:07:06;;;;;;;163.73;72.38;;;20.90;99.90;;;;;;5075639;28;20260;-83
2021/07/13 06:09:32;;;;;;;175.88;73.13;;;20.80;99.90;;;;;;5061580;28;20246;-84
2021/07/13 06:11:58;;;;;;;161.43;71.15;;;20.60;99.90;;;;;;5038109;28;20273;-84
2021/07/13 06:14:24;;;;;;;160.02;69.80;;;20.60;99.90;;;;;;5058426;28;20212;-84
2021/07/13 06:16:50;;;;;;;155.60;70.60;;;20.50;99.90;;;;;;5075591;28;20262;-85
2021/07/13 06:19:17;;;;;;;165.05;70.97;;;20.60;99.90;;;;;;5058076;28;20170;-85
2021/07/13 06:21:43;;;;;;;163.45;73.00;;;20.80;99.90;;;;;;5057387;28;20322;-85
2021/07/13 06:24:09;;;;;;;173.25;73.13;;;21.00;99.90;;;;;;5094595;28;20647;-85
2021/07/13 06:26:35;;;;;;;160.88;69.93;;;21.10;99.90;;;;;;5088518;28;20171;-84
2021/07/13 06:29:01;;;;;;;157.30;69.97;;;21.20;99.90;;;;;;5077938;28;20261;-84
2021/07/13 06:31:27;;;;;;;144.82;66.15;;;21.20;99.90;;;;;;5056898;28;20179;-84
2021/07/13 06:33:52;;;;;;;160.70;69.57;;;21.30;99.90;;;;;;5077516;28;20183;-84
2021/07/13 06:36:18;;;;;;;155.88;68.60;;;21.50;99.90;;;;;;5057869;28;20167;-84
2021/07/13 06:38:44;;;;;;;155.68;69.47;;;21.60;99.90;;;;;;5058116;28;20178;-84
2021/07/13 06:41:09;;;;;;;165.38;68.85;;;21.70;99.90;;;;;;5077384;28;20514;-85
2021/07/13 06:43:35;;;;;;;155.70;69.20;;;21.80;99.90;;;;;;5094961;28;20654;-85
2021/07/13 06:46:01;;;;;;;149.50;68.45;;;21.70;99.90;;;;;;5044588;28;20178;-85
2021/07/13 06:48:27;;;;;;;154.85;70.97;;;21.60;99.90;;;;;;5057539;28;20171;-84
2021/07/13 06:50:53;;;;;;;146.23;64.47;;;21.50;99.90;;;;;;5075741;28;20639;-83
2021/07/13 06:53:19;;;;;;;152.40;67.63;;;21.50;99.90;;;;;;5078290;28;20608;-83
2021/07/13 06:55:45;;;;;;;144.02;67.45;;;21.60;99.90;;;;;;5076829;28;20194;-84
2021/07/13 06:58:11;;;;;;;155.68;70.40;;;21.60;99.90;;;;;;5095049;28;20696;-84
2021/07/13 07:00:36;;;;;;;143.00;67.00;;;21.50;99.90;;;;;;5075968;28;20178;-88
2021/07/13 07:03:03;;;;;;;126.55;63.17;;;21.50;99.90;;;;;;5076820;28;20673;-84
2021/07/13 07:05:28;;;;;;;139.38;66.30;;;21.40;99.90;;;;;;5094665;28;20180;-84
2021/07/13 07:07:55;;;;;;;133.95;64.78;;;21.40;99.90;;;;;;5062203;28;20186;-83
2021/07/13 07:10:21;;;;;;;135.65;69.82;;;21.60;99.90;;;;;;5055913;28;20442;-84
2021/07/13 07:12:49;;;;;;;137.63;70.00;;;21.40;99.90;;;;;;5083257;28;20432;-84
2021/07/13 07:15:15;;;;;;;127.53;65.22;;;21.50;99.90;;;;;;5059556;28;20182;-84
2021/07/13 07:17:51;;;;;;;135.77;66.22;;;21.40;99.90;;;;;;5059419;28;20185;-84
2021/07/13 07:20:19;;;;;;;131.05;62.42;;;21.20;99.90;;;;;;5091840;28;20170;-81
2021/07/13 07:22:45;;;;;;;133.68;63.92;;;21.10;99.90;;;;;;5066934;28;20241;-81
2021/07/13 07:25:11;;;;;;;132.63;63.88;;;20.90;99.90;;;;;;5054621;28;20199;-82
2021/07/13 07:27:37;;;;;;;133.30;62.25;;;20.80;99.90;;;;;;5046003;28;20628;-82
2021/07/13 07:30:08;;;;;;;133.25;62.45;;;20.70;99.90;;;;;;5047102;28;20556;-85
2021/07/13 07:32:35;;;;;;;120.75;60.78;;;20.70;99.90;;;;;;5056580;28;20170;-82
2021/07/13 07:35:01;;;;;;;129.95;63.08;;;20.80;99.90;;;;;;5070730;28;20170;-85
2021/07/13 07:37:27;;;;;;;133.98;60.95;;;20.90;99.90;;;;;;5076482;28;20646;-82
2021/07/13 07:39:53;;;;;;;137.32;65.28;;;21.00;99.90;;;;;;5080593;28;20175;-83
2021/07/13 07:42:18;;;;;;;127.13;63.92;;;20.90;99.90;;;;;;5027295;28;20209;-85
2021/07/13 07:44:44;;;;;;;127.80;64.57;;;20.90;99.90;;;;;;5056818;28;20703;-84
2021/07/13 07:47:10;;;;;;;131.63;64.30;;;20.90;99.90;;;;;;5069345;28;20183;-84
2021/07/13 07:49:36;;;;;;;150.95;67.78;;;21.00;99.90;;;;;;5050241;28;20794;-83
2021/07/13 07:52:02;;;;;;;140.70;65.28;;;21.20;99.90;;;;;;5040434;28;20178;-82
2021/07/13 07:54:28;;;;;;;146.48;67.93;;;21.30;99.90;;;;;;5073972;28;20221;-83
2021/07/13 07:56:53;;;;;;;127.55;63.67;;;21.60;99.90;;;;;;5055715;28;20190;-86
2021/07/13 07:59:20;;;;;;;122.45;62.67;;;21.80;99.90;;;;;;5058525;28;20178;-80
2021/07/13 08:01:47;;;;;;;110.03;58.05;;;22.10;99.90;;;;;;5082927;28;20238;-86
2021/07/13 08:04:13;;;;;;;120.70;58.55;;;22.40;99.90;;;;;;5069211;28;20185;-87
2021/07/13 08:06:39;;;;;;;107.43;56.88;;;22.50;99.90;;;;;;5049224;28;20191;-87
2021/07/13 08:09:07;;;;;;;100.28;54.17;;;22.50;99.90;;;;;;5076796;28;20227;-86
2021/07/13 08:11:33;;;;;;;96.88;54.95;;;22.40;99.90;;;;;;5057732;28;20635;-86
2021/07/13 08:14:00;;;;;;;104.13;55.83;;;22.40;99.90;;;;;;5082241;28;20201;-86
2021/07/13 08:16:27;;;;;;;103.07;53.85;;;22.30;99.90;;;;;;5042999;28;20180;-87
2021/07/13 08:18:52;;;;;;;118.80;58.63;;;22.30;99.90;;;;;;5077894;28;20217;-87
2021/07/13 08:21:19;;;;;;;104.40;54.85;;;22.40;99.90;;;;;;5056429;28;20170;-87
2021/07/13 08:23:46;;;;;;;107.82;59.25;;;22.60;99.90;;;;;;5075447;28;20179;-87
2021/07/13 08:26:12;;;;;;;106.72;57.45;;;22.70;99.90;;;;;;5042880;28;20513;-81
2021/07/13 08:28:38;;;;;;;101.82;55.13;;;23.00;99.90;;;;;;5074855;28;20647;-83
2021/07/13 08:31:03;;;;;;;97.03;54.38;;;23.10;99.90;;;;;;5075467;28;20190;-83
2021/07/13 08:33:29;;;;;;;102.20;53.90;;;23.30;99.90;;;;;;5091375;28;20220;-83
2021/07/13 08:35:55;;;;;;;91.40;50.30;;;23.40;99.90;;;;;;5062890;28;20199;-83
2021/07/13 08:38:20;;;;;;;99.30;56.35;;;23.30;99.90;;;;;;5071422;28;20189;-82
2021/07/13 08:40:47;;;;;;;89.25;51.38;;;23.40;99.90;;;;;;5041956;28;20611;-81
2021/07/13 08:43:13;;;;;;;88.80;51.70;;;23.50;99.90;;;;;;5091283;28;20593;-84
2021/07/13 08:45:39;;;;;;;95.90;51.30;;;23.80;99.90;;;;;;5075500;28;20257;-83
2021/07/13 08:48:05;;;;;;;86.00;50.60;;;24.20;99.90;;;;;;5088895;28;20331;-82
2021/07/13 08:50:31;;;;;;;83.82;49.58;;;24.50;99.90;;;;;;5075491;28;20181;-83
2021/07/13 08:52:57;;;;;;;85.60;50.65;;;24.40;99.90;;;;;;5085266;28;20628;-84
2021/07/13 08:55:24;;;;;;;87.55;49.53;;;24.50;99.90;;;;;;5053681;28;20174;-87
2021/07/13 08:57:50;;;;;;;74.90;45.47;;;24.50;99.90;;;;;;5052024;28;20198;-85
2021/07/13 09:00:19;;;;;;;79.28;45.85;;;24.30;99.90;;;;;;5073440;28;20654;-84
2021/07/13 09:03:07;;;;;;;71.25;43.63;;;24.20;99.90;;;;;;5055147;28;20221;-84
2021/07/13 09:05:40;;;;;;;80.10;45.20;;;24.00;99.90;;;;;;5075423;28;20191;-84
2021/07/13 09:08:21;;;;;;;86.45;48.83;;;23.90;99.90;;;;;;5077422;28;20201;-88
2021/07/13 09:11:13;;;;;;;80.97;46.78;;;23.80;99.90;;;;;;5082841;28;20213;-86
2021/07/13 09:13:48;;;;;;;66.05;39.03;;;23.90;99.90;;;;;;5088827;28;20206;-87
2021/07/13 09:16:20;;;;;;;91.15;48.28;;;24.30;99.90;;;;;;5075890;28;20197;-87
2021/07/13 09:18:50;;;;;;;86.47;49.85;;;24.70;99.90;;;;;;5086382;28;20239;-88
2021/07/13 09:21:33;;;;;;;75.93;46.35;;;24.90;99.90;;;;;;5076667;28;20543;-87
2021/07/13 09:24:17;;;;;;;87.30;49.05;;;24.80;99.90;;;;;;5059379;28;20533;-89
2021/07/13 09:26:46;;;;;;;95.30;54.05;;;24.70;99.90;;;;;;5087409;28;20174;-85
2021/07/13 09:29:36;;;;;;;83.78;49.17;;;24.60;99.90;;;;;;5078195;28;20185;-86
2021/07/13 09:32:19;;;;;;;91.30;54.00;;;24.50;99.90;;;;;;5087356;28;20178;-87
2021/07/13 09:34:53;;;;;;;95.97;55.70;;;24.20;99.90;;;;;;5058937;28;20174;-87
2021/07/13 09:37:24;;;;;;;102.18;58.20;;;24.00;99.90;;;;;;5059005;28;20174;-87
2021/07/13 09:40:17;;;;;;;100.15;57.10;;;23.90;99.90;;;;;;5088658;28;20207;-86
2021/07/13 09:42:49;;;;;;;101.43;58.70;;;24.00;99.90;;;;;;5077291;28;20785;-86
2021/07/13 09:45:27;;;;;;;98.40;59.53;;;24.40;99.90;;;;;;5079007;28;20627;-86
2021/07/13 09:47:58;;;;;;;103.65;60.50;;;24.80;99.90;;;;;;5077331;28;20185;-83
2021/07/13 09:50:40;;;;;;;99.70;59.75;;;25.30;99.90;;;;;;5078433;28;20162;-82
2021/07/13 09:53:08;;;;;;;97.05;59.35;;;25.40;99.90;;;;;;5064668;28;20213;-84
2021/07/13 09:55:35;;;;;;;95.50;59.67;;;25.50;99.90;;;;;;5076362;28;20562;-82
2021/07/13 09:58:12;;;;;;;97.00;60.03;;;25.30;99.90;;;;;;5089367;28;20190;-82
2021/07/13 10:00:43;;;;;;;101.93;62.33;;;24.90;99.90;;;;;;5094602;28;20324;-83
2021/07/13 10:03:12;;;;;;;100.70;61.63;;;24.90;99.90;;;;;;5078639;28;20194;-83
2021/07/13 10:05:39;;;;;;;111.50;61.58;;;25.10;99.90;;;;;;5077838;28;20205;-82
2021/07/13 10:08:06;;;;;;;108.70;61.20;;;25.00;99.90;;;;;;5094928;28;20173;-82
2021/07/13 10:10:33;;;;;;;104.93;62.67;;;24.70;99.90;;;;;;5061744;28;20170;-81
2021/07/13 10:12:59;;;;;;;99.57;59.22;;;24.40;99.90;;;;;;5077168;28;20236;-82
2021/07/13 10:15:26;;;;;;;103.88;60.95;;;24.00;99.90;;;;;;5041630;28;20202;-80
2021/07/13 10:17:53;;;;;;;104.10;64.40;;;24.10;99.90;;;;;;5057014;28;20479;-83
2021/07/13 10:20:22;;;;;;;101.03;59.78;;;24.10;99.90;;;;;;5047795;28;20174;-78
2021/07/13 10:22:50;;;;;;;98.50;60.25;;;24.20;99.90;;;;;;5088337;28;20197;-81
2021/07/13 10:25:16;;;;;;;101.32;57.97;;;24.20;99.90;;;;;;5086016;28;20189;-82
2021/07/13 10:27:49;;;;;;;88.53;51.35;;;24.10;99.90;;;;;;5065023;28;20542;-83
2021/07/13 10:30:21;;;;;;;84.38;50.83;;;24.30;99.90;;;;;;5057755;28;20158;-83
2021/07/13 10:32:47;;;;;;;74.28;44.78;;;24.70;99.90;;;;;;5086841;28;20632;-83
2021/07/13 10:35:31;;;;;;;69.63;41.33;;;25.00;99.90;;;;;;5061045;28;20178;-83
2021/07/13 10:38:21;;;;;;;72.95;43.63;;;25.50;99.90;;;;;;5061526;28;20243;-83
2021/07/13 10:40:48;;;;;;;65.15;37.92;;;25.50;99.90;;;;;;5095101;28;20150;-83
2021/07/13 10:43:22;;;;;;;69.07;39.63;;;25.50;99.90;;;;;;5059363;28;20216;-82
2021/07/13 10:46:03;;;;;;;54.90;35.75;;;25.50;99.90;;;;;;5095789;28;20169;-82
2021/07/13 10:48:29;;;;;;;54.45;33.95;;;25.50;99.90;;;;;;5076400;28;20647;-84
2021/07/13 10:51:03;;;;;;;47.05;32.58;;;25.50;99.90;;;;;;5060898;28;20181;-83
2021/07/13 10:53:40;;;;;;;55.00;33.00;;;25.50;99.90;;;;;;5061114;28;20170;-83
2021/07/13 10:56:07;;;;;;;57.40;32.58;;;25.10;99.90;;;;;;5075242;28;20236;-83
2021/07/13 10:58:39;;;;;;;50.90;31.75;;;24.80;99.90;;;;;;5074962;28;20273;-83
2021/07/13 11:01:07;;;;;;;46.20;32.53;;;24.80;99.90;;;;;;5077253;28;20268;-83
2021/07/13 11:03:33;;;;;;;48.13;32.63;;;24.80;99.90;;;;;;5069378;28;20272;-83
2021/07/13 11:06:10;;;;;;;44.17;30.13;;;24.50;99.90;;;;;;5073998;28;20235;-83
2021/07/13 11:08:43;;;;;;;37.40;27.80;;;24.40;99.90;;;;;;5074528;28;20658;-82
2021/07/13 11:11:13;;;;;;;49.40;29.80;;;24.50;99.90;;;;;;5086251;28;20167;-82
2021/07/13 11:13:39;;;;;;;46.25;30.55;;;24.90;99.90;;;;;;5093487;28;20571;-83
2021/07/13 11:16:05;;;;;;;38.10;28.92;;;25.10;99.90;;;;;;5056239;28;20179;-82
2021/07/13 11:18:36;;;;;;;43.70;29.77;;;25.00;99.90;;;;;;5079450;28;20191;-81
2021/07/13 11:21:21;;;;;;;39.33;30.08;;;25.20;99.90;;;;;;5082118;28;20303;-82
2021/07/13 11:23:48;;;;;;;40.70;30.67;;;25.30;99.90;;;;;;5092130;28;20214;-84
2021/07/13 11:26:16;;;;;;;35.05;29.17;;;25.20;99.90;;;;;;5074692;28;20258;-82
2021/07/13 11:28:52;;;;;;;29.45;25.33;;;25.30;99.90;;;;;;5074412;28;20166;-84
2021/07/13 11:31:23;;;;;;;35.08;27.67;;;25.50;99.90;;;;;;5093148;28;20696;-82
2021/07/13 11:33:53;;;;;;;39.15;30.55;;;25.90;99.90;;;;;;5094872;28;20165;-82
2021/07/13 11:36:33;;;;;;;36.67;28.88;;;26.20;99.90;;;;;;5074454;28;20177;-81
2021/07/13 11:39:01;;;;;;;35.30;28.42;;;26.10;99.90;;;;;;5060648;28;20170;-82
2021/07/13 11:41:29;;;;;;;36.75;30.63;;;26.10;99.90;;;;;;5086330;28;20269;-83
2021/07/13 11:43:57;;;;;;;37.85;30.58;;;26.00;99.90;;;;;;5082626;28;20208;-82
2021/07/13 11:46:25;;;;;;;36.08;29.00;;;26.00;99.90;;;;;;5082229;28;20224;-83
2021/07/13 11:49:24;;;;;;;41.22;32.20;;;26.00;99.90;;;;;;5069664;28;20224;-85
2021/07/13 11:52:00;;;;;;;38.47;32.85;;;26.20;99.90;;;;;;5039494;28;20216;-82
2021/07/13 11:54:35;;;;;;;37.38;31.20;;;26.10;99.90;;;;;;5056233;28;20255;-83
2021/07/13 11:57:06;;;;;;;38.50;31.15;;;25.60;99.90;;;;;;5085379;28;20191;-84
2021/07/13 11:59:33;;;;;;;37.45;31.15;;;25.30;99.90;;;;;;5094080;28;20252;-84
2021/07/13 12:02:01;;;;;;;32.10;26.92;;;25.00;99.90;;;;;;5094262;28;20201;-83
2021/07/13 12:04:28;;;;;;;30.73;26.70;;;24.40;99.90;;;;;;5070345;28;20189;-82
2021/07/13 12:06:56;;;;;;;42.03;30.52;;;24.00;99.90;;;;;;5060308;28;20537;-81
2021/07/13 12:09:27;;;;;;;51.60;35.33;;;23.50;99.90;;;;;;5092404;28;20166;-81
2021/07/13 12:11:54;;;;;;;53.88;38.22;;;23.30;99.90;;;;;;5094162;28;20207;-81
2021/07/13 12:14:23;;;;;;;58.72;39.75;;;23.10;99.90;;;;;;5094091;28;20637;-81
2021/07/13 12:16:48;;;;;;;64.20;41.13;;;22.80;99.90;;;;;;5092686;28;20174;-82
2021/07/13 12:19:20;;;;;;;73.28;42.53;;;22.70;99.90;;;;;;5058490;28;20194;-84
2021/07/13 12:21:56;;;;;;;74.78;44.78;;;22.50;99.90;;;;;;5066451;28;20750;-81
2021/07/13 12:24:31;;;;;;;78.88;47.22;;;22.30;99.90;;;;;;5102816;28;20212;-82
2021/07/13 12:26:58;;;;;;;76.50;48.28;;;22.30;99.90;;;;;;5093004;28;20198;-81
2021/07/13 12:29:33;;;;;;;86.03;51.42;;;22.30;99.90;;;;;;5077053;28;20170;-83
2021/07/13 12:32:01;;;;;;;86.45;53.25;;;22.50;99.90;;;;;;5055420;28;20178;-81